Time;durP1;ratioP1;P1;durP2;ratioP2;P2;SDS_P1;SDS_P2;PMS_P1;PMS_P2;Temp;Humidity;BMP_temperature;BMP_pressure;BME280_temperature;BME280_humidity;BME280_pressure;Samples;Min_cycle;Max_cycle;Signal;HPM_P1;HPM_P2
2023/01/03 00:01:16;;;;;;;9.70;8.40;;;11.40;99.90;;;;;;5049280;28;20958;-64
2023/01/03 00:03:42;;;;;;;8.53;7.67;;;11.40;99.90;;;;;;5051609;28;20433;-64
2023/01/03 00:06:20;;;;;;;9.93;8.90;;;11.40;99.90;;;;;;5051550;28;20288;-64
2023/01/03 00:08:46;;;;;;;15.33;8.60;;;11.40;99.90;;;;;;5052436;28;20407;-64
2023/01/03 00:11:18;;;;;;;10.03;8.90;;;11.40;99.90;;;;;;5049045;28;20463;-67
2023/01/03 00:13:44;;;;;;;10.87;8.60;;;11.40;99.90;;;;;;5051731;28;20451;-65
2023/01/03 00:16:15;;;;;;;9.47;8.63;;;11.50;99.90;;;;;;5050761;28;20459;-70
2023/01/03 00:18:41;;;;;;;11.30;10.07;;;11.40;99.90;;;;;;5051634;28;20178;-65
2023/01/03 00:21:07;;;;;;;11.27;10.00;;;11.50;99.90;;;;;;5049572;28;20480;-65
2023/01/03 00:23:32;;;;;;;10.90;9.90;;;11.40;99.90;;;;;;5051014;28;20176;-65
2023/01/03 00:25:58;;;;;;;9.77;8.77;;;11.50;99.90;;;;;;5052267;28;20197;-65
2023/01/03 00:28:23;;;;;;;10.20;8.87;;;11.50;99.90;;;;;;5050247;28;20185;-66
2023/01/03 00:30:49;;;;;;;10.10;9.10;;;11.40;99.90;;;;;;5050075;28;20252;-65
2023/01/03 00:33:15;;;;;;;9.37;8.40;;;11.40;99.90;;;;;;5052015;28;20180;-65
2023/01/03 00:35:40;;;;;;;14.77;9.00;;;11.40;99.90;;;;;;5051476;28;20574;-65
2023/01/03 00:38:06;;;;;;;9.20;7.77;;;11.40;99.90;;;;;;5051582;28;20192;-65
2023/01/03 00:40:32;;;;;;;10.67;7.87;;;11.30;99.90;;;;;;5048408;28;20317;-66
2023/01/03 00:45:42;;;;;;;9.23;7.73;;;11.40;99.90;;;;;;5032548;28;20245;-65
2023/01/03 00:48:07;;;;;;;8.70;7.40;;;11.30;99.90;;;;;;5040209;28;20455;-66
2023/01/03 00:50:36;;;;;;;10.30;7.97;;;11.30;99.90;;;;;;5049804;28;20181;-65
2023/01/03 00:53:02;;;;;;;7.60;6.40;;;11.30;99.90;;;;;;5051822;28;20611;-65
2023/01/03 00:55:27;;;;;;;11.07;8.03;;;11.30;99.90;;;;;;5050471;28;20431;-65
2023/01/03 00:57:53;;;;;;;9.20;7.60;;;11.40;99.90;;;;;;5051316;28;20175;-65
2023/01/03 01:00:19;;;;;;;7.60;6.20;;;11.30;99.90;;;;;;5048694;28;20190;-65
2023/01/03 01:02:46;;;;;;;9.17;6.80;;;11.20;99.90;;;;;;5049127;28;20183;-65
2023/01/03 01:05:12;;;;;;;7.00;6.40;;;11.20;99.90;;;;;;5049765;28;20201;-70
2023/01/03 01:07:38;;;;;;;8.03;6.30;;;11.10;99.90;;;;;;5033453;28;20763;-67
2023/01/03 01:10:04;;;;;;;7.60;6.67;;;11.20;99.90;;;;;;5049374;28;20547;-65
2023/01/03 01:12:30;;;;;;;8.23;7.33;;;11.20;99.90;;;;;;5049333;28;20180;-65
2023/01/03 01:14:55;;;;;;;8.40;6.47;;;11.20;99.90;;;;;;5050869;28;20432;-65
2023/01/03 01:17:21;;;;;;;8.37;6.37;;;11.20;99.90;;;;;;5050617;28;20195;-65
2023/01/03 01:19:46;;;;;;;10.90;7.03;;;11.20;99.90;;;;;;5053463;28;20177;-65
2023/01/03 01:22:12;;;;;;;8.27;6.40;;;11.20;99.90;;;;;;5054147;28;20619;-65
2023/01/03 01:24:39;;;;;;;7.13;6.50;;;11.10;99.90;;;;;;5055125;28;20189;-65
2023/01/03 01:27:05;;;;;;;7.67;6.87;;;11.10;99.90;;;;;;5055810;28;20185;-65
2023/01/03 01:29:30;;;;;;;7.70;6.47;;;11.10;99.90;;;;;;5055181;28;20412;-65
2023/01/03 01:31:56;;;;;;;7.40;6.73;;;11.10;99.90;;;;;;5054621;28;20442;-65
2023/01/03 01:34:22;;;;;;;9.57;6.23;;;11.10;99.90;;;;;;5053741;28;20192;-65
2023/01/03 01:36:48;;;;;;;7.00;6.30;;;11.00;99.90;;;;;;5052027;28;20170;-65
2023/01/03 01:39:21;;;;;;;7.43;6.77;;;11.10;99.90;;;;;;5054602;28;20196;-65
2023/01/03 01:44:55;;;;;;;7.53;6.73;;;11.00;99.90;;;;;;5053528;28;21038;-65
2023/01/03 01:47:37;;;;;;;6.77;6.07;;;10.90;99.90;;;;;;5054662;28;20482;-65
2023/01/03 01:50:12;;;;;;;7.60;6.80;;;11.00;99.90;;;;;;5052420;28;20485;-65
2023/01/03 01:52:44;;;;;;;6.87;6.27;;;11.00;99.90;;;;;;5043206;28;20432;-65
2023/01/03 01:55:15;;;;;;;7.80;6.80;;;11.00;99.90;;;;;;5054224;28;20471;-66
2023/01/03 01:57:42;;;;;;;6.80;5.83;;;11.00;99.90;;;;;;5055656;28;20486;-65
2023/01/03 02:00:10;;;;;;;6.77;5.90;;;11.00;99.90;;;;;;5052267;28;20747;-65
2023/01/03 02:02:35;;;;;;;7.37;6.63;;;11.00;99.90;;;;;;5052797;28;20784;-65
2023/01/03 02:05:06;;;;;;;7.47;6.37;;;10.90;99.90;;;;;;5053762;28;20804;-65
2023/01/03 02:07:33;;;;;;;8.60;5.53;;;10.90;99.90;;;;;;5054818;28;20187;-65
2023/01/03 02:09:59;;;;;;;6.10;5.60;;;10.90;99.90;;;;;;5055978;28;20443;-65
2023/01/03 02:15:31;;;;;;;6.33;5.73;;;10.80;99.90;;;;;;5053345;28;20457;-65
2023/01/03 02:18:14;;;;;;;8.03;5.93;;;10.70;99.90;;;;;;5053840;28;20430;-65
2023/01/03 02:21:01;;;;;;;5.73;5.23;;;10.70;99.90;;;;;;5052250;28;20798;-65
2023/01/03 02:23:32;;;;;;;6.20;5.70;;;10.70;99.90;;;;;;5053913;28;20917;-65
2023/01/03 02:26:22;;;;;;;6.73;5.40;;;10.70;99.90;;;;;;5054862;28;20451;-65
2023/01/03 02:29:14;;;;;;;5.50;5.00;;;10.70;99.90;;;;;;5053227;28;20435;-65
2023/01/03 02:32:08;;;;;;;6.83;5.13;;;10.70;99.90;;;;;;5052345;28;20437;-65
2023/01/03 02:34:45;;;;;;;6.10;5.60;;;10.70;99.90;;;;;;5053189;28;20423;-65
2023/01/03 02:37:11;;;;;;;6.40;5.90;;;10.80;99.90;;;;;;5034024;28;20508;-65
2023/01/03 02:39:55;;;;;;;6.93;6.07;;;10.80;99.90;;;;;;5033522;28;20582;-69
2023/01/03 02:45:18;;;;;;;6.27;5.67;;;10.70;99.90;;;;;;5053324;28;20547;-63
2023/01/03 02:47:57;;;;;;;9.67;5.30;;;10.70;99.90;;;;;;5054351;28;20397;-64
2023/01/03 02:50:27;;;;;;;6.70;6.00;;;10.80;99.90;;;;;;5051818;28;20762;-65
2023/01/03 02:52:56;;;;;;;11.00;6.07;;;10.70;99.90;;;;;;5053684;28;20421;-64
2023/01/03 02:55:25;;;;;;;6.50;5.90;;;10.70;99.90;;;;;;5053843;28;20510;-65
2023/01/03 02:57:59;;;;;;;7.40;6.20;;;10.70;99.90;;;;;;5054139;28;20879;-64
2023/01/03 03:00:28;;;;;;;7.70;6.37;;;10.70;99.90;;;;;;5051840;28;20437;-65
2023/01/03 03:02:59;;;;;;;6.57;6.07;;;10.60;99.90;;;;;;5053084;28;20426;-65
2023/01/03 03:05:33;;;;;;;6.80;5.83;;;10.60;99.90;;;;;;5050863;28;20456;-64
2023/01/03 03:07:58;;;;;;;6.80;6.20;;;10.80;99.90;;;;;;5052590;28;20434;-65
2023/01/03 03:13:46;;;;;;;14.93;6.90;;;10.70;99.90;;;;;;5053813;28;20173;-65
2023/01/03 03:16:46;;;;;;;6.87;6.20;;;10.60;99.90;;;;;;5053684;28;20928;-64
2023/01/03 03:25:13;;;;;;;6.60;5.87;;;10.60;99.90;;;;;;5053400;28;20562;-64
2023/01/03 03:30:29;;;;;;;8.60;6.00;;;10.60;99.90;;;;;;5052237;28;20403;-65
2023/01/03 03:33:04;;;;;;;6.93;6.10;;;10.60;99.90;;;;;;5052311;28;20407;-64
2023/01/03 03:35:34;;;;;;;7.50;6.50;;;10.60;99.90;;;;;;5052675;28;20407;-64
2023/01/03 03:38:02;;;;;;;7.40;6.53;;;10.70;99.90;;;;;;5052442;28;20452;-64
2023/01/03 03:46:44;;;;;;;7.03;6.40;;;10.70;99.90;;;;;;5050049;28;20437;-64
2023/01/03 03:52:01;;;;;;;6.90;6.23;;;10.70;99.90;;;;;;5052809;28;20471;-65
2023/01/03 03:54:30;;;;;;;9.73;6.70;;;10.80;99.90;;;;;;5049982;28;20845;-65
2023/01/03 03:57:21;;;;;;;7.07;6.47;;;10.70;99.90;;;;;;5053043;28;20521;-64
2023/01/03 03:59:51;;;;;;;7.27;6.57;;;10.70;99.90;;;;;;5051998;28;20406;-64
2023/01/03 04:02:19;;;;;;;7.00;6.30;;;10.70;99.90;;;;;;5052680;28;20405;-64
2023/01/03 04:04:48;;;;;;;7.47;6.70;;;10.70;99.90;;;;;;5050918;28;20462;-65
2023/01/03 04:07:14;;;;;;;7.10;6.50;;;10.70;99.90;;;;;;5052517;28;20901;-65
2023/01/03 04:09:40;;;;;;;7.30;6.70;;;10.70;99.90;;;;;;5052145;28;20458;-64
2023/01/03 04:12:06;;;;;;;8.37;6.70;;;10.80;99.90;;;;;;5051728;28;20258;-64
2023/01/03 04:14:31;;;;;;;8.20;7.47;;;10.70;99.90;;;;;;5051289;28;20184;-65
2023/01/03 04:16:57;;;;;;;8.30;7.50;;;10.70;99.90;;;;;;5051320;28;20463;-64
2023/01/03 04:19:23;;;;;;;8.93;7.90;;;10.70;99.90;;;;;;5050977;28;20419;-70
2023/01/03 04:21:49;;;;;;;7.40;6.80;;;10.80;99.90;;;;;;5050592;28;20262;-65
2023/01/03 04:24:14;;;;;;;11.33;7.17;;;10.70;99.90;;;;;;5051260;28;20174;-65
2023/01/03 04:26:40;;;;;;;8.10;7.40;;;10.70;99.90;;;;;;5050728;28;20544;-65
2023/01/03 04:29:06;;;;;;;7.20;6.60;;;10.70;99.90;;;;;;5050222;28;20206;-65
2023/01/03 04:31:31;;;;;;;7.87;7.17;;;10.80;99.90;;;;;;5050317;28;20177;-64
2023/01/03 04:33:57;;;;;;;8.63;7.10;;;10.70;99.90;;;;;;5050717;28;20180;-65
2023/01/03 04:36:23;;;;;;;9.33;7.80;;;10.70;99.90;;;;;;5051232;28;20541;-69
2023/01/03 04:38:49;;;;;;;9.00;7.70;;;10.70;99.90;;;;;;5050915;28;20540;-64
2023/01/03 04:41:15;;;;;;;7.80;7.17;;;10.70;99.90;;;;;;5052528;28;20453;-65
2023/01/03 04:46:25;;;;;;;11.40;10.30;;;10.70;99.90;;;;;;5049116;28;20456;-65
2023/01/03 04:48:51;;;;;;;7.80;7.10;;;10.70;99.90;;;;;;5052408;28;20420;-64
2023/01/03 04:51:16;;;;;;;9.70;8.70;;;10.70;99.90;;;;;;5052360;28;20176;-65
2023/01/03 04:53:42;;;;;;;9.00;8.10;;;10.70;99.90;;;;;;5054222;28;20189;-65
2023/01/03 04:56:08;;;;;;;9.23;8.43;;;10.70;99.90;;;;;;5056196;28;20291;-65
2023/01/03 04:58:34;;;;;;;8.03;7.33;;;10.70;99.90;;;;;;5052349;28;20719;-65
2023/01/03 05:01:01;;;;;;;9.13;8.23;;;10.80;99.90;;;;;;5054340;28;20586;-64
2023/01/03 05:03:27;;;;;;;9.43;8.60;;;10.80;99.90;;;;;;5051379;28;20573;-65
2023/01/03 05:06:01;;;;;;;7.73;7.03;;;10.70;99.90;;;;;;5056155;28;20491;-64
2023/01/03 05:08:26;;;;;;;7.30;6.57;;;10.70;99.90;;;;;;5055931;28;20518;-65
2023/01/03 05:10:53;;;;;;;6.33;5.83;;;10.60;99.90;;;;;;5054472;28;20500;-64
2023/01/03 05:13:18;;;;;;;7.33;6.70;;;10.60;99.90;;;;;;5056140;28;20196;-64
2023/01/03 05:15:44;;;;;;;7.80;7.00;;;10.60;99.90;;;;;;5055468;28;20407;-64
2023/01/03 05:18:10;;;;;;;7.43;6.63;;;10.60;99.90;;;;;;5055129;28;20538;-65
2023/01/03 05:26:17;;;;;;;6.50;5.90;;;10.70;99.90;;;;;;5054737;28;20463;-64
2023/01/03 05:28:45;;;;;;;7.37;6.70;;;10.70;99.90;;;;;;5054380;28;20430;-65
2023/01/03 05:31:11;;;;;;;7.10;6.37;;;10.70;99.90;;;;;;5054682;28;20558;-65
2023/01/03 05:33:38;;;;;;;6.97;6.00;;;10.70;99.90;;;;;;5053997;28;20460;-65
2023/01/03 05:36:04;;;;;;;6.97;6.33;;;10.80;99.90;;;;;;5054860;28;20199;-65
2023/01/03 05:38:30;;;;;;;8.73;7.80;;;10.80;99.90;;;;;;5054213;28;20488;-65
2023/01/03 05:40:56;;;;;;;6.97;5.30;;;10.80;99.90;;;;;;5055600;28;20467;-65
2023/01/03 05:43:22;;;;;;;6.03;5.43;;;10.80;99.90;;;;;;5053403;28;20457;-64
2023/01/03 05:45:50;;;;;;;8.67;8.03;;;10.70;99.90;;;;;;5050103;28;20197;-64
2023/01/03 05:48:16;;;;;;;6.37;5.87;;;10.80;99.90;;;;;;5034131;28;20632;-64
2023/01/03 05:50:41;;;;;;;6.37;5.83;;;10.70;99.90;;;;;;5035183;28;20450;-64
2023/01/03 05:53:07;;;;;;;8.60;7.90;;;10.70;99.90;;;;;;5053710;28;20193;-64
2023/01/03 05:55:38;;;;;;;6.87;6.33;;;10.80;99.90;;;;;;5053943;28;20183;-65
2023/01/03 05:58:05;;;;;;;10.10;6.10;;;10.70;99.90;;;;;;5055379;28;20173;-65
2023/01/03 06:00:31;;;;;;;8.33;7.50;;;10.70;99.90;;;;;;5052190;28;20519;-67
2023/01/03 06:02:57;;;;;;;7.20;5.23;;;10.60;99.90;;;;;;5043268;28;20419;-65
2023/01/03 06:05:23;;;;;;;6.40;5.90;;;10.60;99.90;;;;;;5055001;28;20549;-65
2023/01/03 06:07:49;;;;;;;8.53;7.00;;;10.70;99.90;;;;;;5052107;28;20182;-65
2023/01/03 06:10:14;;;;;;;10.57;7.17;;;10.60;99.90;;;;;;5055143;28;20173;-64
2023/01/03 06:12:40;;;;;;;6.50;5.90;;;10.60;99.90;;;;;;5048846;28;20262;-65
2023/01/03 06:15:06;;;;;;;5.67;5.13;;;10.60;99.90;;;;;;5049542;28;20225;-64
2023/01/03 06:20:16;;;;;;;9.70;6.97;;;10.50;99.90;;;;;;5053706;28;20401;-64
2023/01/03 06:22:42;;;;;;;9.00;8.10;;;10.50;99.90;;;;;;5048013;28;20889;-65
2023/01/03 06:25:11;;;;;;;10.50;7.97;;;10.60;99.90;;;;;;5034864;28;20209;-64
2023/01/03 06:27:37;;;;;;;9.27;6.93;;;10.60;99.90;;;;;;5045815;28;20518;-65
2023/01/03 06:30:03;;;;;;;7.70;7.10;;;10.60;99.90;;;;;;5051217;28;20471;-65
2023/01/03 06:32:29;;;;;;;8.87;5.63;;;10.70;99.90;;;;;;5048248;28;20431;-65
2023/01/03 06:34:55;;;;;;;6.43;5.43;;;10.70;99.90;;;;;;5052725;28;20432;-64
2023/01/03 06:37:21;;;;;;;6.97;6.33;;;10.80;99.90;;;;;;5051353;28;20492;-65
2023/01/03 06:39:46;;;;;;;9.97;8.80;;;10.80;99.90;;;;;;5052958;28;20267;-65
2023/01/03 06:53:19;;;;;;;8.67;7.93;;;10.70;99.90;;;;;;5053970;28;20387;-65
2023/01/03 06:55:45;;;;;;;7.50;6.80;;;10.70;99.90;;;;;;5052925;28;20425;-64
2023/01/03 06:58:12;;;;;;;7.30;6.60;;;10.60;99.90;;;;;;5053873;28;20414;-65
2023/01/03 07:00:40;;;;;;;8.50;6.07;;;10.60;99.90;;;;;;5052061;28;20420;-65
2023/01/03 07:03:06;;;;;;;11.23;7.43;;;10.60;99.90;;;;;;5053661;28;20489;-64
2023/01/03 07:05:32;;;;;;;7.13;6.43;;;10.40;99.90;;;;;;5052808;28;20465;-69
2023/01/03 07:07:58;;;;;;;9.43;8.53;;;10.40;99.90;;;;;;5051723;28;20443;-64
2023/01/03 07:10:24;;;;;;;8.00;7.30;;;10.40;99.90;;;;;;5071060;28;20620;-64
2023/01/03 07:15:33;;;;;;;9.00;6.60;;;10.20;99.90;;;;;;5047780;28;20432;-68
2023/01/03 07:17:59;;;;;;;10.87;9.97;;;10.30;99.90;;;;;;5053599;28;20436;-65
2023/01/03 07:20:25;;;;;;;8.17;7.37;;;10.20;99.90;;;;;;5052279;28;20201;-64
2023/01/03 07:22:52;;;;;;;11.00;10.10;;;10.10;99.90;;;;;;5051126;28;20593;-64
2023/01/03 07:25:18;;;;;;;7.83;7.10;;;10.20;99.90;;;;;;5052129;28;20207;-65
2023/01/03 07:27:43;;;;;;;10.77;9.87;;;10.10;99.90;;;;;;5052380;28;20442;-65
2023/01/03 07:30:10;;;;;;;8.67;7.97;;;10.00;99.90;;;;;;5053916;28;20415;-64
2023/01/03 07:32:35;;;;;;;10.30;7.37;;;10.00;99.90;;;;;;5052475;28;20185;-65
2023/01/03 07:35:01;;;;;;;8.97;7.17;;;10.00;99.90;;;;;;5051356;28;20434;-65
2023/01/03 07:37:27;;;;;;;8.07;7.27;;;10.20;99.90;;;;;;5052168;28;20192;-65
2023/01/03 07:39:53;;;;;;;7.13;6.47;;;10.10;99.90;;;;;;5051841;28;20245;-65
2023/01/03 07:45:03;;;;;;;8.20;7.50;;;9.80;99.90;;;;;;5052017;28;20256;-64
2023/01/03 07:47:29;;;;;;;12.50;11.50;;;9.80;99.90;;;;;;5050443;28;20437;-68
2023/01/03 07:49:55;;;;;;;11.37;10.47;;;9.90;99.90;;;;;;5052610;28;20425;-68
2023/01/03 07:52:20;;;;;;;13.97;12.83;;;10.50;99.90;;;;;;5052320;28;20617;-68
2023/01/03 07:54:46;;;;;;;9.20;8.40;;;11.10;99.90;;;;;;5051429;28;20189;-68
2023/01/03 07:57:14;;;;;;;14.50;13.50;;;11.60;99.90;;;;;;5052898;28;20661;-67
2023/01/03 07:59:39;;;;;;;8.43;7.73;;;12.00;99.90;;;;;;5051716;28;20193;-69
2023/01/03 08:02:05;;;;;;;11.13;9.93;;;12.60;99.90;;;;;;5051822;28;20426;-69
2023/01/03 08:04:31;;;;;;;9.90;9.20;;;13.00;99.90;;;;;;5051561;28;20231;-67
2023/01/03 08:06:57;;;;;;;7.50;7.00;;;13.30;99.90;;;;;;5051082;28;20186;-67
2023/01/03 08:14:52;;;;;;;12.20;11.20;;;14.30;99.90;;;;;;5050675;28;20441;-67
2023/01/03 08:17:18;;;;;;;10.33;9.53;;;14.60;99.90;;;;;;5051730;28;20440;-67
2023/01/03 08:19:43;;;;;;;8.97;8.07;;;14.80;99.90;;;;;;5051092;28;20673;-68
2023/01/03 08:22:09;;;;;;;9.80;9.00;;;15.00;99.90;;;;;;5052399;28;20185;-67
2023/01/03 08:24:35;;;;;;;11.10;10.00;;;15.10;99.90;;;;;;5051553;28;20202;-67
2023/01/03 08:27:00;;;;;;;14.23;8.27;;;15.30;99.90;;;;;;5054228;28;20207;-67
2023/01/03 08:29:26;;;;;;;7.97;7.40;;;15.30;99.90;;;;;;5050863;28;20182;-69
2023/01/03 08:31:56;;;;;;;6.80;6.30;;;15.40;98.70;;;;;;5051738;28;20201;-66
2023/01/03 08:34:25;;;;;;;6.43;5.70;;;15.20;96.00;;;;;;5050886;28;20177;-66
2023/01/03 08:36:55;;;;;;;6.40;5.90;;;14.90;95.00;;;;;;5049846;28;20424;-66
2023/01/03 08:39:27;;;;;;;7.07;6.37;;;14.50;95.00;;;;;;5050986;28;20423;-66
2023/01/03 08:42:02;;;;;;;7.40;6.17;;;14.10;95.40;;;;;;5050438;28;20936;-66
2023/01/03 08:44:27;;;;;;;7.20;6.60;;;13.70;97.50;;;;;;5051373;28;20967;-66
2023/01/03 08:46:56;;;;;;;7.63;6.87;;;13.30;98.60;;;;;;5050731;28;20437;-65
2023/01/03 08:49:22;;;;;;;8.57;7.67;;;13.00;99.90;;;;;;5052187;28;20514;-65
2023/01/03 08:51:48;;;;;;;8.10;7.50;;;12.80;99.90;;;;;;5050854;28;20924;-64
2023/01/03 08:54:13;;;;;;;7.47;6.77;;;12.50;99.90;;;;;;5049640;28;20431;-64
2023/01/03 08:56:39;;;;;;;7.50;6.27;;;12.40;99.90;;;;;;5050724;28;20173;-65
2023/01/03 08:59:06;;;;;;;6.50;5.90;;;12.20;99.90;;;;;;5052668;28;20190;-65
2023/01/03 09:01:31;;;;;;;5.67;5.27;;;12.10;99.90;;;;;;5033444;28;20449;-65
2023/01/03 09:03:57;;;;;;;4.67;4.20;;;12.10;99.90;;;;;;5050839;28;20428;-65
2023/01/03 09:06:23;;;;;;;4.00;3.70;;;12.50;99.90;;;;;;5051950;28;20210;-65
2023/01/03 09:08:48;;;;;;;6.93;6.40;;;13.10;99.90;;;;;;5054803;28;20183;-65
2023/01/03 09:11:14;;;;;;;6.10;5.20;;;13.70;99.90;;;;;;5056293;28;20442;-65
2023/01/03 09:13:40;;;;;;;7.20;6.70;;;14.00;99.90;;;;;;5051077;28;20601;-65
2023/01/03 09:16:08;;;;;;;4.60;4.30;;;13.90;98.50;;;;;;5050240;28;20285;-65
2023/01/03 09:18:35;;;;;;;6.30;5.90;;;14.60;97.70;;;;;;5048836;28;20929;-65
2023/01/03 09:21:02;;;;;;;4.10;3.80;;;14.90;95.60;;;;;;5050049;28;20468;-65
2023/01/03 09:23:28;;;;;;;4.27;4.03;;;15.00;94.80;;;;;;5050908;28;20923;-64
2023/01/03 09:25:54;;;;;;;5.17;4.50;;;15.40;95.10;;;;;;5048532;28;20495;-65
2023/01/03 09:28:20;;;;;;;4.43;4.13;;;15.70;92.90;;;;;;5052197;28;20450;-64
2023/01/03 09:30:46;;;;;;;4.93;3.70;;;15.90;92.70;;;;;;5050402;28;20439;-65
2023/01/03 09:33:11;;;;;;;4.67;4.27;;;15.90;92.30;;;;;;5050979;28;20215;-64
2023/01/03 09:35:38;;;;;;;7.90;4.53;;;15.20;92.50;;;;;;5054915;28;20177;-64
2023/01/03 09:38:04;;;;;;;4.40;3.90;;;15.00;92.60;;;;;;5052199;28;20185;-64
2023/01/03 09:40:31;;;;;;;4.20;3.80;;;14.80;93.80;;;;;;5053702;28;20526;-64
2023/01/03 09:43:13;;;;;;;5.07;4.87;;;14.30;94.40;;;;;;5054680;28;20427;-64
2023/01/03 09:45:45;;;;;;;7.10;6.60;;;14.30;95.80;;;;;;5054495;28;20495;-64
2023/01/03 09:48:17;;;;;;;3.93;3.70;;;14.30;95.90;;;;;;5054428;28;20443;-64
2023/01/03 09:50:44;;;;;;;8.70;7.10;;;13.90;96.90;;;;;;5052883;28;20423;-65
2023/01/03 10:05:08;;;;;;;4.87;4.57;;;14.10;97.00;;;;;;5053852;28;20950;-65
2023/01/03 10:07:59;;;;;;;6.47;6.07;;;13.90;97.60;;;;;;5054368;28;20427;-64
2023/01/03 10:10:40;;;;;;;5.90;5.50;;;13.40;98.80;;;;;;5035273;28;20454;-64
2023/01/03 10:13:19;;;;;;;5.10;4.70;;;13.50;99.90;;;;;;5051868;28;20455;-64
2023/01/03 10:16:14;;;;;;;5.30;5.10;;;13.90;98.50;;;;;;5053334;28;20813;-65
2023/01/03 10:19:04;;;;;;;3.60;3.30;;;13.90;98.40;;;;;;5053857;28;20954;-64
2023/01/03 10:21:47;;;;;;;4.10;3.90;;;13.70;98.90;;;;;;5052595;28;20942;-64
2023/01/03 10:24:29;;;;;;;4.50;4.10;;;13.60;99.90;;;;;;5053785;28;20437;-64
2023/01/03 10:27:15;;;;;;;5.30;5.00;;;13.50;99.90;;;;;;5051899;28;20441;-64
2023/01/03 10:29:42;;;;;;;4.30;4.10;;;13.20;99.90;;;;;;5052759;28;20762;-64
2023/01/03 10:32:24;;;;;;;6.30;6.00;;;12.80;99.90;;;;;;5053508;28;20406;-64
2023/01/03 10:35:26;;;;;;;5.37;3.83;;;12.60;99.90;;;;;;5054092;28;20419;-64
2023/01/03 10:37:54;;;;;;;3.63;3.43;;;12.50;99.90;;;;;;5029906;28;20442;-64
2023/01/03 10:40:32;;;;;;;3.27;2.97;;;13.30;99.90;;;;;;5044107;28;20484;-64
2023/01/03 10:42:57;;;;;;;3.57;3.27;;;14.10;99.90;;;;;;5051910;28;20463;-64
2023/01/03 10:45:23;;;;;;;5.60;5.10;;;14.70;98.20;;;;;;5054369;28;20483;-65
2023/01/03 10:47:59;;;;;;;4.10;3.90;;;14.90;96.90;;;;;;5052573;28;20196;-65
2023/01/03 10:50:26;;;;;;;3.70;3.50;;;14.80;96.70;;;;;;5053294;28;20179;-64
2023/01/03 10:53:06;;;;;;;4.27;3.90;;;14.50;98.70;;;;;;5052764;28;20422;-64
2023/01/03 10:55:34;;;;;;;4.10;3.70;;;14.80;99.20;;;;;;5054018;28;20819;-64
2023/01/03 10:58:21;;;;;;;3.73;3.53;;;15.40;97.40;;;;;;5052677;28;20426;-64
2023/01/03 11:00:48;;;;;;;3.77;3.47;;;15.70;95.90;;;;;;5052498;28;20438;-65
2023/01/03 11:03:24;;;;;;;5.50;5.20;;;16.00;94.70;;;;;;5053426;28;20409;-67
2023/01/03 11:05:59;;;;;;;3.90;3.73;;;16.20;94.00;;;;;;5032288;28;20491;-64
2023/01/03 11:08:43;;;;;;;4.03;3.80;;;16.30;93.80;;;;;;5044204;28;20436;-65
2023/01/03 11:11:30;;;;;;;3.57;3.37;;;16.40;93.50;;;;;;5052409;28;20462;-65
2023/01/03 11:14:08;;;;;;;3.50;3.40;;;16.40;93.40;;;;;;5052032;28;20770;-65
2023/01/03 11:16:34;;;;;;;4.07;3.83;;;16.10;93.80;;;;;;5054153;28;20465;-65
2023/01/03 11:19:02;;;;;;;4.00;3.50;;;15.50;94.80;;;;;;5052244;28;20463;-65
2023/01/03 11:21:46;;;;;;;3.50;3.23;;;15.20;95.40;;;;;;5052704;28;20273;-65
2023/01/03 11:24:47;;;;;;;5.63;5.43;;;14.90;96.80;;;;;;5053739;28;20396;-65
2023/01/03 11:27:33;;;;;;;3.47;3.23;;;14.70;96.80;;;;;;5034136;28;20420;-65
2023/01/03 11:30:20;;;;;;;5.10;4.80;;;14.40;98.00;;;;;;5044312;28;20522;-65
2023/01/03 11:33:04;;;;;;;3.30;3.10;;;14.30;98.40;;;;;;5052876;28;20447;-65
2023/01/03 11:35:54;;;;;;;3.63;3.43;;;14.20;98.80;;;;;;5052631;28;20518;-65
2023/01/03 11:38:51;;;;;;;4.80;2.87;;;14.10;99.20;;;;;;5053869;28;20448;-65
2023/01/03 11:41:41;;;;;;;3.20;3.10;;;14.00;99.40;;;;;;5068595;28;20538;-65
2023/01/03 11:44:38;;;;;;;6.10;5.90;;;14.20;99.50;;;;;;5032848;28;20797;-65
2023/01/03 11:47:26;;;;;;;3.90;3.30;;;14.50;99.60;;;;;;5032751;28;20416;-65
2023/01/03 11:50:26;;;;;;;6.80;6.33;;;14.70;97.90;;;;;;5043035;28;20491;-65
2023/01/03 11:53:12;;;;;;;9.57;5.63;;;14.70;97.10;;;;;;5051537;28;20526;-65
2023/01/03 11:55:53;;;;;;;4.30;3.90;;;14.10;99.00;;;;;;5051942;28;20407;-65
2023/01/03 11:58:45;;;;;;;5.03;4.77;;;14.10;99.80;;;;;;5053518;28;20455;-65
2023/01/03 12:01:23;;;;;;;3.97;3.77;;;14.00;99.70;;;;;;5051084;28;20492;-65
2023/01/03 12:04:23;;;;;;;3.87;3.67;;;13.90;99.60;;;;;;5051188;28;20790;-65
2023/01/03 12:07:10;;;;;;;2.83;2.63;;;13.60;99.90;;;;;;5042590;28;20453;-71
2023/01/03 12:09:41;;;;;;;3.13;2.93;;;13.60;99.90;;;;;;5051730;28;20492;-65
2023/01/03 12:12:32;;;;;;;4.00;3.70;;;13.50;99.90;;;;;;5051971;28;20453;-65
2023/01/03 12:15:11;;;;;;;8.13;4.27;;;13.40;99.90;;;;;;5051439;28;20434;-65
2023/01/03 12:17:50;;;;;;;4.70;3.53;;;13.30;99.90;;;;;;5051254;28;20429;-65
2023/01/03 12:20:22;;;;;;;4.30;3.97;;;13.20;99.90;;;;;;5052369;28;20445;-65
2023/01/03 12:22:52;;;;;;;3.50;3.20;;;13.30;99.90;;;;;;5051614;28;20534;-66
2023/01/03 12:25:29;;;;;;;4.00;3.60;;;13.20;99.90;;;;;;5050513;28;20824;-65
2023/01/03 12:28:10;;;;;;;3.90;3.60;;;13.30;99.90;;;;;;5051100;28;20769;-65
2023/01/03 12:30:39;;;;;;;3.43;3.23;;;13.30;99.90;;;;;;5052639;28;20878;-64
2023/01/03 12:33:24;;;;;;;4.33;3.93;;;13.30;99.90;;;;;;5050963;28;20436;-64
2023/01/03 12:36:02;;;;;;;3.87;3.67;;;13.40;99.90;;;;;;5051259;28;20560;-64
2023/01/03 12:38:38;;;;;;;4.07;3.87;;;13.50;99.90;;;;;;5051293;28;20545;-64
2023/01/03 12:41:13;;;;;;;3.70;3.40;;;13.60;99.90;;;;;;5051963;28;20470;-64
2023/01/03 12:43:57;;;;;;;3.70;3.40;;;13.80;99.90;;;;;;5052290;28;20503;-64
2023/01/03 12:46:39;;;;;;;4.83;3.50;;;13.90;99.90;;;;;;5051507;28;20518;-64
2023/01/03 12:49:13;;;;;;;4.00;3.20;;;13.90;99.90;;;;;;5050584;28;20934;-65
2023/01/03 12:51:39;;;;;;;2.97;2.80;;;13.90;99.90;;;;;;5052292;28;20429;-65
2023/01/03 12:54:22;;;;;;;6.00;5.50;;;13.80;99.90;;;;;;5050725;28;20431;-64
2023/01/03 12:57:09;;;;;;;2.87;2.77;;;13.80;99.90;;;;;;5050415;28;20190;-64
2023/01/03 12:59:52;;;;;;;4.87;4.57;;;13.90;99.90;;;;;;5051075;28;20414;-64
2023/01/03 13:02:32;;;;;;;3.67;3.00;;;13.90;99.90;;;;;;5066851;28;20530;-65
2023/01/03 13:05:43;;;;;;;4.97;4.67;;;13.90;99.90;;;;;;5049474;28;20486;-66
2023/01/03 13:08:34;;;;;;;3.80;3.10;;;13.70;99.90;;;;;;5028714;28;20446;-65
2023/01/03 13:11:04;;;;;;;2.97;2.77;;;13.80;99.90;;;;;;5019617;28;20440;-64
2023/01/03 13:13:31;;;;;;;3.60;3.30;;;13.70;99.90;;;;;;5038305;28;20432;-65
2023/01/03 13:15:57;;;;;;;3.27;3.07;;;13.70;99.90;;;;;;5055320;28;20956;-64
2023/01/03 13:18:23;;;;;;;6.67;3.47;;;13.70;99.90;;;;;;5053942;28;20529;-64
2023/01/03 13:20:53;;;;;;;3.40;3.07;;;13.60;99.90;;;;;;5055571;28;20268;-65
2023/01/03 13:23:40;;;;;;;4.17;3.70;;;13.60;99.90;;;;;;5055906;28;20590;-64
2023/01/03 13:26:22;;;;;;;3.50;3.20;;;13.50;99.90;;;;;;5054353;28;20544;-65
2023/01/03 13:28:50;;;;;;;4.40;4.00;;;13.50;99.90;;;;;;5055084;28;20439;-64
2023/01/03 13:31:20;;;;;;;3.77;3.47;;;13.40;99.90;;;;;;5054179;28;20756;-65
2023/01/03 13:33:56;;;;;;;5.40;4.10;;;13.40;99.90;;;;;;5055620;28;20910;-64
2023/01/03 13:36:23;;;;;;;4.03;3.60;;;13.30;99.90;;;;;;5055077;28;20452;-64
2023/01/03 13:38:49;;;;;;;4.33;4.13;;;13.40;99.90;;;;;;5054985;28;20536;-65
2023/01/03 13:41:35;;;;;;;3.53;3.23;;;13.40;99.90;;;;;;5052255;28;20852;-64
2023/01/03 13:44:22;;;;;;;4.20;3.63;;;13.40;99.90;;;;;;5053741;28;20399;-65
2023/01/03 13:46:48;;;;;;;3.27;3.00;;;13.50;99.90;;;;;;5051672;28;20463;-64
2023/01/03 13:49:22;;;;;;;4.27;3.10;;;13.50;99.90;;;;;;5052719;28;20758;-65
2023/01/03 13:51:56;;;;;;;6.53;3.43;;;13.50;99.90;;;;;;5051306;28;20898;-65
2023/01/03 13:54:32;;;;;;;3.43;2.93;;;13.60;99.90;;;;;;5035565;28;20420;-66
2023/01/03 13:57:02;;;;;;;4.97;4.67;;;13.60;99.90;;;;;;5048504;28;20434;-69
2023/01/03 13:59:36;;;;;;;4.03;3.80;;;13.60;99.90;;;;;;5054413;28;20460;-64
2023/01/03 14:02:11;;;;;;;5.70;5.37;;;13.60;99.90;;;;;;5053568;28;20427;-65
2023/01/03 14:04:51;;;;;;;3.47;3.27;;;13.60;99.90;;;;;;5054583;28;20519;-66
2023/01/03 14:07:54;;;;;;;10.63;4.90;;;13.50;99.90;;;;;;5053509;28;20424;-65
2023/01/03 14:10:52;;;;;;;5.30;5.00;;;13.40;99.90;;;;;;5053272;28;20424;-65
2023/01/03 14:13:47;;;;;;;4.30;3.70;;;13.40;99.90;;;;;;5053997;28;20464;-65
2023/01/03 14:16:29;;;;;;;3.93;2.73;;;13.30;99.90;;;;;;5052464;28;20438;-65
2023/01/03 14:19:02;;;;;;;2.00;1.90;;;13.30;99.90;;;;;;5052950;28;20774;-65
2023/01/03 14:21:40;;;;;;;4.23;3.40;;;13.20;99.90;;;;;;5053895;28;20432;-67
2023/01/03 14:24:15;;;;;;;3.70;3.40;;;13.20;99.90;;;;;;5052647;28;20392;-68
2023/01/03 14:26:41;;;;;;;4.40;4.00;;;13.40;99.90;;;;;;5052588;28;20512;-69